Acosta, Argentina
Current Conditions -  °F | °C
As of 5:00 PM on Friday 31 Oct 2014 (Local Time) from SASA Reporting Station
Overcast Overcast  
Wind Chill: 88°   Ceiling: 20000
Heat Index: 88°   Visibility: 6mi
Dew Point: 59°   Wind: 13mph
Humidity: 38%   Direction: 90°E
Pressure: 29.83"   Gusts: NA
Location:  25.59°S, 65.46°W
Report Text: SASA 312000Z 09011KT 9999 FEW010 OVC20031/15 Q1010
Loading
Personal Weather Stations






























Interactive Weather Map
Tropical Storm Tracking
New forecast layout! Learn more

10-Day Weather Forecast

Advertisements
Track Severe Weather on mobile